createdAt,value
2022-11-30T00:03:36.637Z,100013.25
2022-11-30T00:08:44.242Z,100012.42
2022-11-30T00:13:51.860Z,100017.55
2022-11-30T00:18:59.989Z,100024.05
2022-11-30T00:24:08.373Z,100024.52
2022-11-30T00:29:15.689Z,100031.59
2022-11-30T00:34:22.641Z,100029.44
2022-11-30T00:39:35.333Z,100030.43
2022-11-30T00:44:42.968Z,100037.42
2022-11-30T00:49:50.674Z,100037.15
2022-11-30T00:54:59.406Z,100031.95
2022-11-30T01:00:11.759Z,100029.88
2022-11-30T01:05:19.479Z,100025.08
2022-11-30T01:10:28.212Z,100024.50
2022-11-30T01:15:39.863Z,100030.55
2022-11-30T01:20:47.383Z,100032.51
2022-11-30T01:25:57.980Z,100030.23
2022-11-30T01:31:07.371Z,100031.43
2022-11-30T01:36:16.267Z,100030.89
2022-11-30T01:41:26.076Z,100027.27
2022-11-30T01:46:38.157Z,100026.14
2022-11-30T01:51:50.062Z,100024.63
2022-11-30T01:57:01.318Z,100031.38
2022-11-30T02:02:09.076Z,100040.67
2022-11-30T02:07:16.806Z,100048.17
2022-11-30T02:12:36.011Z,100056.15
2022-11-30T02:17:53.916Z,100057.55
2022-11-30T02:23:22.401Z,100064.34
2022-11-30T02:28:57.131Z,100059.31
2022-11-30T02:34:06.972Z,100061.29
2022-11-30T02:39:14.419Z,100058.80
2022-11-30T02:44:24.324Z,100056.86
2022-11-30T02:49:38.538Z,100057.23
2022-11-30T02:54:46.439Z,100056.34
2022-11-30T02:59:54.336Z,100060.38
2022-11-30T03:05:01.384Z,100060.52
2022-11-30T03:10:10.996Z,100062.66
2022-11-30T03:15:19.063Z,100064.21
2022-11-30T03:20:26.821Z,100065.62
2022-11-30T03:25:33.872Z,100072.91
2022-11-30T03:30:41.028Z,100075.17
2022-11-30T03:35:48.235Z,100076.89
2022-11-30T03:41:02.784Z,100082.77
2022-11-30T03:51:09.063Z,100089.25
2022-11-30T03:56:17.143Z,100086.81
2022-11-30T04:01:25.152Z,100082.55
2022-11-30T04:06:32.518Z,100083.20
2022-11-30T04:11:39.829Z,100088.63
2022-11-30T04:16:45.182Z,100091.34
2022-11-30T04:21:52.689Z,100090.80
2022-11-30T04:26:59.995Z,100086.32
2022-11-30T04:32:07.767Z,100090.88
2022-11-30T04:37:15.110Z,100097.11
2022-11-30T04:42:22.551Z,100103.36
2022-11-30T04:47:29.785Z,100105.33
2022-11-30T04:52:38.111Z,100104.79
2022-11-30T04:57:45.348Z,100109.83
2022-11-30T05:02:53.583Z,100111.64
2022-11-30T05:08:01.900Z,100115.28
2022-11-30T05:13:09.125Z,100117.95
2022-11-30T05:18:17.221Z,100119.41
2022-11-30T05:23:24.847Z,100123.44
2022-11-30T05:28:32.747Z,100125.29
2022-11-30T05:33:40.346Z,100126.87
2022-11-30T05:38:47.663Z,100124.29
2022-11-30T05:43:56.497Z,100123.71
2022-11-30T05:49:04.089Z,100122.15
2022-11-30T05:54:11.593Z,100122.73
2022-11-30T05:59:16.943Z,100122.66
2022-11-30T06:04:24.382Z,100124.33
2022-11-30T06:09:32.099Z,100123.10
2022-11-30T06:14:39.184Z,100131.01
2022-11-30T06:19:46.477Z,100137.94
2022-11-30T06:24:53.986Z,100142.34
2022-11-30T06:30:02.237Z,100141.92
2022-11-30T06:35:11.186Z,100142.17
2022-11-30T06:40:18.789Z,100150.52
2022-11-30T06:45:26.256Z,100150.75
2022-11-30T06:50:34.996Z,100150.39
2022-11-30T06:55:43.218Z,100153.70
2022-11-30T07:00:50.528Z,100152.51
2022-11-30T07:05:58.852Z,100157.30
2022-11-30T07:11:07.082Z,100159.60
2022-11-30T07:16:15.877Z,100164.42
2022-11-30T07:21:22.942Z,100165.17
2022-11-30T07:26:29.316Z,100165.95
2022-11-30T07:31:36.865Z,100171.09
2022-11-30T07:36:44.091Z,100164.02
2022-11-30T07:41:49.788Z,100168.64
2022-11-30T07:46:57.024Z,100168.45
2022-11-30T07:52:04.848Z,100172.08
2022-11-30T07:57:12.993Z,100179.45
2022-11-30T08:02:21.139Z,100184.02
2022-11-30T08:07:28.438Z,100187.52
2022-11-30T08:12:35.823Z,100184.34
2022-11-30T08:17:41.305Z,100185.34
2022-11-30T08:22:49.425Z,100191.58
2022-11-30T08:27:56.916Z,100190.81
2022-11-30T08:33:04.310Z,100191.86
2022-11-30T08:38:12.332Z,100194.50
2022-11-30T08:43:19.946Z,100194.84
2022-11-30T08:48:27.556Z,100197.17
2022-11-30T08:53:35.239Z,100205.08
2022-11-30T08:58:43.589Z,100202.67
2022-11-30T09:03:53.546Z,100201.14
2022-11-30T09:09:02.404Z,100200.29
2022-11-30T09:14:12.353Z,100201.91
2022-11-30T09:19:20.056Z,100207.67
2022-11-30T09:24:28.294Z,100210.55
2022-11-30T09:29:35.828Z,100210.56
2022-11-30T09:34:45.695Z,100204.05
2022-11-30T09:39:54.196Z,100196.11
2022-11-30T09:45:12.885Z,100198.64
2022-11-30T09:50:25.966Z,100193.48
2022-11-30T09:55:36.176Z,100191.16
2022-11-30T10:00:43.370Z,100185.56
2022-11-30T10:05:52.011Z,100186.33
2022-11-30T10:11:18.995Z,100176.83
2022-11-30T10:16:32.781Z,100169.67
2022-11-30T10:21:58.311Z,100174.61
2022-11-30T10:27:17.864Z,100175.33
2022-11-30T10:32:39.117Z,100174.08
2022-11-30T10:37:48.207Z,100174.39
2022-11-30T10:43:07.799Z,100171.56
2022-11-30T10:48:21.352Z,100167.80
2022-11-30T10:53:28.859Z,100164.45
2022-11-30T10:58:39.504Z,100157.39
2022-11-30T11:03:47.378Z,100159.42
2022-11-30T11:08:54.496Z,100154.90
2022-11-30T11:14:11.230Z,100152.38
2022-11-30T11:19:26.588Z,100152.21
2022-11-30T11:24:34.473Z,100154.61
2022-11-30T11:29:42.168Z,100152.55
2022-11-30T11:34:51.494Z,100154.16
2022-11-30T11:40:05.694Z,100156.41
2022-11-30T11:45:22.267Z,100157.98
2022-11-30T11:51:05.063Z,100155.81
2022-11-30T11:56:07.505Z,100156.92
2022-11-30T12:01:40.490Z,100152.19
2022-11-30T12:06:52.273Z,100158.77
2022-11-30T12:11:59.565Z,100162.93
2022-11-30T12:17:11.279Z,100161.02
2022-11-30T12:22:38.640Z,100168.56
2022-11-30T12:27:54.490Z,100170.95
2022-11-30T12:33:21.310Z,100172.20
2022-11-30T12:38:39.980Z,100167.80
2022-11-30T12:43:55.981Z,100160.60
2022-11-30T12:49:18.693Z,100160.98
2022-11-30T12:54:34.756Z,100160.83
2022-11-30T12:59:51.856Z,100164.86
2022-11-30T13:05:03.991Z,100161.29
2022-11-30T13:10:26.884Z,100164.42
2022-11-30T13:15:36.771Z,100162.80
2022-11-30T13:20:51.174Z,100164.93
2022-11-30T13:26:08.589Z,100158.52
2022-11-30T13:31:24.126Z,100160.04
2022-11-30T13:36:38.423Z,100161.45
2022-11-30T13:41:48.702Z,100156.65
2022-11-30T13:46:56.439Z,100154.15
2022-11-30T13:58:07.091Z,100152.98
2022-11-30T14:03:28.713Z,100146.90
2022-11-30T14:08:39.444Z,100145.88
2022-11-30T14:13:47.091Z,100145.16
2022-11-30T14:18:54.414Z,100150.19
2022-11-30T14:24:06.934Z,100154.61
2022-11-30T14:29:22.223Z,100149.00
2022-11-30T14:34:34.141Z,100147.02
2022-11-30T14:39:46.334Z,100143.27
2022-11-30T14:44:54.425Z,100147.75
2022-11-30T14:50:06.104Z,100146.92
2022-11-30T14:55:26.333Z,100153.42
2022-11-30T15:00:40.375Z,100152.70
2022-11-30T15:05:47.963Z,100151.43
2022-11-30T15:10:56.903Z,100149.46
2022-11-30T15:17:11.270Z,100153.98
2022-11-30T15:22:25.151Z,100158.05
2022-11-30T15:27:32.964Z,100159.13
2022-11-30T15:32:40.388Z,100164.90
2022-11-30T15:37:48.018Z,100171.48
2022-11-30T15:42:55.880Z,100178.82
2022-11-30T15:48:05.544Z,100178.40
2022-11-30T15:53:34.148Z,100182.16
2022-11-30T15:58:46.989Z,100188.30
2022-11-30T16:04:16.634Z,100187.70
2022-11-30T16:09:32.535Z,100192.28
2022-11-30T16:14:39.550Z,100198.42
2022-11-30T16:19:47.012Z,100201.81
2022-11-30T16:24:54.337Z,100198.09
2022-11-30T16:30:01.601Z,100203.84
2022-11-30T16:35:19.878Z,100206.42
2022-11-30T16:40:27.087Z,100200.14
2022-11-30T16:45:35.685Z,100196.47
2022-11-30T16:50:43.467Z,100196.59
2022-11-30T16:55:50.795Z,100200.64
2022-11-30T17:01:00.551Z,100198.61
2022-11-30T17:06:10.386Z,100203.02
2022-11-30T17:11:22.756Z,100204.86
2022-11-30T17:16:30.405Z,100206.69
2022-11-30T17:21:39.146Z,100205.59
2022-11-30T17:26:46.188Z,100206.80
2022-11-30T17:31:52.282Z,100206.08
2022-11-30T17:36:59.472Z,100208.95
2022-11-30T17:42:07.193Z,100210.53
2022-11-30T17:47:14.691Z,100205.66
2022-11-30T17:52:22.001Z,100212.51
2022-11-30T17:57:29.038Z,100215.52
2022-11-30T18:02:36.174Z,100216.38
2022-11-30T18:07:43.584Z,100217.49
2022-11-30T18:12:51.332Z,100213.45
2022-11-30T18:18:01.417Z,100214.30
2022-11-30T18:23:09.018Z,100214.02
2022-11-30T18:28:16.365Z,100214.31
2022-11-30T18:33:24.385Z,100219.52
2022-11-30T18:38:37.217Z,100220.86
2022-11-30T18:43:44.933Z,100228.16
2022-11-30T18:48:51.426Z,100228.52
2022-11-30T18:54:00.792Z,100230.27
2022-11-30T18:59:09.561Z,100229.63
2022-11-30T19:04:16.842Z,100232.48
2022-11-30T19:09:24.092Z,100231.91
2022-11-30T19:14:31.431Z,100234.73
2022-11-30T19:19:38.719Z,100233.24
2022-11-30T19:24:45.972Z,100237.81
2022-11-30T19:29:53.664Z,100240.96
2022-11-30T19:35:00.778Z,100241.91
2022-11-30T19:40:09.520Z,100239.91
2022-11-30T19:50:49.164Z,100243.07
2022-11-30T19:55:57.261Z,100238.01
2022-11-30T20:01:05.531Z,100235.40
2022-11-30T20:06:13.168Z,100234.52
2022-11-30T20:11:21.043Z,100240.27
2022-11-30T20:16:28.888Z,100235.79
2022-11-30T20:21:37.712Z,100241.61
2022-11-30T20:26:47.810Z,100239.44
2022-11-30T20:31:55.210Z,100239.08
2022-11-30T20:37:02.533Z,100238.64
2022-11-30T20:42:10.016Z,100233.13
2022-11-30T20:47:17.257Z,100230.97
2022-11-30T20:52:23.394Z,100234.14
2022-11-30T20:57:36.265Z,100223.45
2022-11-30T21:02:43.511Z,100229.58
2022-11-30T21:07:51.292Z,100226.70
2022-11-30T21:12:58.274Z,100226.98
2022-11-30T21:18:05.770Z,100227.70
2022-11-30T21:23:12.794Z,100228.54
2022-11-30T21:28:21.103Z,100226.15
2022-11-30T21:33:28.668Z,100234.27
2022-11-30T21:38:36.428Z,100234.88
2022-11-30T21:43:43.944Z,100232.79
2022-11-30T21:48:52.244Z,100228.25
2022-11-30T21:54:01.422Z,100223.48
2022-11-30T21:59:10.683Z,100219.27
2022-11-30T22:04:18.184Z,100221.06
2022-11-30T22:09:25.723Z,100215.70
2022-11-30T22:14:33.270Z,100210.66
2022-11-30T22:19:40.465Z,100212.80
2022-11-30T22:24:45.955Z,100214.90
2022-11-30T22:29:55.178Z,100215.52
2022-11-30T22:35:02.374Z,100208.38
2022-11-30T22:40:09.584Z,100212.12
2022-11-30T22:45:17.308Z,100203.80
2022-11-30T22:50:25.328Z,100206.54
2022-11-30T22:55:34.261Z,100203.95
2022-11-30T23:00:41.544Z,100207.34
2022-11-30T23:05:49.353Z,100208.04
2022-11-30T23:11:01.449Z,100205.71
2022-11-30T23:16:20.008Z,100199.83
2022-11-30T23:21:32.705Z,100199.98
2022-11-30T23:26:42.864Z,100196.23
2022-11-30T23:31:51.526Z,100194.74
2022-11-30T23:36:58.741Z,100191.18
2022-11-30T23:42:04.167Z,100180.70
2022-11-30T23:47:16.799Z,100176.83
2022-11-30T23:52:25.590Z,100175.20
2022-11-30T23:57:31.719Z,100173.09
